地図

経路データ

SID SEASON NUMBER BASIN SUBBASIN NAME ISO_TIME NATURE LAT LON WMO_WIND WMO_PRES WMO_AGENCY TRACK_TYPE DIST2LAND LANDFALL IFLAG USA_AGENCY USA_ATCF_ID USA_LAT USA_LON USA_RECORD USA_STATUS USA_WIND USA_PRES USA_SSHS USA_R34_NE USA_R34_SE USA_R34_SW USA_R34_NW USA_R50_NE USA_R50_SE USA_R50_SW USA_R50_NW USA_R64_NE USA_R64_SE USA_R64_SW USA_R64_NW USA_POCI USA_ROCI USA_RMW USA_EYE TOKYO_LAT TOKYO_LON TOKYO_GRADE TOKYO_WIND TOKYO_PRES TOKYO_R50_DIR TOKYO_R50_LONG TOKYO_R50_SHORT TOKYO_R30_DIR TOKYO_R30_LONG TOKYO_R30_SHORT TOKYO_LAND CMA_LAT CMA_LON CMA_CAT CMA_WIND CMA_PRES HKO_LAT HKO_LON HKO_CAT HKO_WIND HKO_PRES NEWDELHI_LAT NEWDELHI_LON NEWDELHI_GRADE NEWDELHI_WIND NEWDELHI_PRES NEWDELHI_CI NEWDELHI_DP NEWDELHI_POCI REUNION_LAT REUNION_LON REUNION_TYPE REUNION_WIND REUNION_PRES REUNION_TNUM REUNION_CI REUNION_RMW REUNION_R34_NE REUNION_R34_SE REUNION_R34_SW REUNION_R34_NW REUNION_R50_NE REUNION_R50_SE REUNION_R50_SW REUNION_R50_NW REUNION_R64_NE REUNION_R64_SE REUNION_R64_SW REUNION_R64_NW BOM_LAT BOM_LON BOM_TYPE BOM_WIND BOM_PRES BOM_TNUM BOM_CI BOM_RMW BOM_R34_NE BOM_R34_SE BOM_R34_SW BOM_R34_NW BOM_R50_NE BOM_R50_SE BOM_R50_SW BOM_R50_NW BOM_R64_NE BOM_R64_SE BOM_R64_SW BOM_R64_NW BOM_ROCI BOM_POCI BOM_EYE BOM_POS_METHOD BOM_PRES_METHOD NADI_LAT NADI_LON NADI_CAT NADI_WIND NADI_PRES WELLINGTON_LAT WELLINGTON_LON WELLINGTON_WIND WELLINGTON_PRES DS824_LAT DS824_LON DS824_STAGE DS824_WIND DS824_PRES TD9636_LAT TD9636_LON TD9636_STAGE TD9636_WIND TD9636_PRES TD9635_LAT TD9635_LON TD9635_WIND TD9635_PRES TD9635_ROCI NEUMANN_LAT NEUMANN_LON NEUMANN_CLASS NEUMANN_WIND NEUMANN_PRES MLC_LAT MLC_LON MLC_CLASS MLC_WIND MLC_PRES USA_GUST BOM_GUST BOM_GUST_PER REUNION_GUST REUNION_GUST_PER USA_SEAHGT USA_SEARAD_NE USA_SEARAD_SE USA_SEARAD_SW USA_SEARAD_NW STORM_SPEED STORM_DIR
1865052S13058 1865 7 SI MM NOT_NAMED 1865-02-21 06:00:00 NR -12.9000 58.2000 reunion main 807 807 _____O________ -1 -12.9000 58.2000 99 9.90000 1 0
1865052S13058 1865 7 SI MM NOT_NAMED 1865-02-21 09:00:00 NR -12.9272 58.2148 main 807 796 _____P________ -1 -12.9272 58.2148 99 1 144
1865052S13058 1865 7 SI MM NOT_NAMED 1865-02-21 12:00:00 NR -12.9638 58.2400 main 796 796 _____P________ -1 -12.9638 58.2400 99 1 145
1865052S13058 1865 7 SI MM NOT_NAMED 1865-02-21 15:00:00 NR -13.0190 58.2861 main 797 785 _____P________ -1 -13.0190 58.2861 99 3 134
1865052S13058 1865 7 SI MM NOT_NAMED 1865-02-21 18:00:00 NR -13.1417 58.4309 main 786 767 _____P____O___ -1 -13.1021 58.3636 99 -13.3000 58.7000 7 4 132
1865052S13058 1865 7 SI MM NOT_NAMED 1865-02-21 21:00:00 NR -13.2790 58.5822 main 767 757 _____P____P___ -1 -13.2225 58.4831 99 -13.3918 58.7805 7 4 134
1865052S13058 1865 7 SI MM NOT_NAMED 1865-02-22 00:00:00 NR -13.4441 58.7595 main 758 738 _____P____P___ -1 -13.3895 58.6551 99 -13.5169 58.8987 7 6 134
1865052S13058 1865 7 SI MM NOT_NAMED 1865-02-22 03:00:00 NR -13.6604 58.9914 main 729 711 _____P____P___ -1 -13.6123 58.8904 99 -13.7086 59.0925 7 7 134
1865052S13058 1865 7 SI MM NOT_NAMED 1865-02-22 06:00:00 NR -13.9500 59.3000 reunion main 714 679 _____O____O___ -1 -13.9000 59.2000 99 9.90000 -14.0000 59.4000 7 10 134
1865052S13058 1865 7 SI MM NOT_NAMED 1865-02-22 09:00:00 NR -14.3346 59.7180 main 682 649 _____P____P___ -1 -14.2580 59.5906 99 -14.4112 59.8453 7 12 133
1865052S13058 1865 7 SI MM NOT_NAMED 1865-02-22 12:00:00 NR -14.7937 60.2225 main 649 624 _____P____P___ -1 -14.6765 60.0513 99 -14.9109 60.3938 7 14 133
1865052S13058 1865 7 SI MM NOT_NAMED 1865-02-22 15:00:00 NR -15.2984 60.7810 main 629 613 _____P____P___ -1 -15.1418 60.5664 99 -15.4550 60.9956 7 15 133
1865052S13058 1865 7 SI MM NOT_NAMED 1865-02-22 18:00:00 NR -15.8202 61.3601 main 620 607 _____P____O___ -1 -15.6404 61.1202 99 -16.0000 61.6000 7 15 133
1865052S13058 1865 7 SI MM NOT_NAMED 1865-02-22 21:00:00 NR -16.3284 61.9248 main 614 614 _____P____P___ -1 -16.1587 61.6969 99 -16.4982 62.1527 7 15 133
1865052S13058 1865 7 SI MM NOT_NAMED 1865-02-23 00:00:00 NR -16.8354 62.4876 main 626 619 _____P____P___ -1 -16.6834 62.2801 99 -16.9873 62.6951 7 15 133
1865052S13058 1865 7 SI MM NOT_NAMED 1865-02-23 03:00:00 NR -17.3296 63.0342 main 640 640 _____P____P___ -1 -17.2015 62.8534 99 -17.4577 63.2151 7 14 134
1865052S13058 1865 7 SI MM NOT_NAMED 1865-02-23 06:00:00 NR -17.8000 63.5500 reunion main 670 665 _____O____O___ -1 -17.7000 63.4000 99 9.90000 -17.9000 63.7000 7 13 134
1865052S13058 1865 7 SI MM NOT_NAMED 1865-02-23 09:00:00 NR -18.2273 64.0092 main 691 687 _____P____P___ -1 -18.1556 63.8851 99 -18.2989 64.1332 7 12 135
1865052S13058 1865 7 SI MM NOT_NAMED 1865-02-23 12:00:00 NR -18.6370 64.4431 main 717 717 _____P____P___ -1 -18.6026 64.3545 99 -18.6715 64.5318 7 11 135
1865052S13058 1865 7 SI MM NOT_NAMED 1865-02-23 15:00:00 NR -19.0353 64.8601 main 757 755 _____P____P___ -1 -19.0373 64.8058 99 -19.0334 64.9144 7 11 135
1865052S13058 1865 7 SI MM NOT_NAMED 1865-02-23 18:00:00 NR -19.4280 65.2682 main 790 789 _____P____O___ -1 -19.4560 65.2365 99 -19.4000 65.3000 7 11 136
1865052S13058 1865 7 SI MM NOT_NAMED 1865-02-23 21:00:00 NR -19.8193 65.6739 main 826 826 _____P____P___ -1 -19.8553 65.6440 99 -19.7833 65.7038 7 11 136
1865052S13058 1865 7 SI MM NOT_NAMED 1865-02-24 00:00:00 NR -20.2100 66.0682 main 865 865 _____P____P___ -1 -20.2315 66.0256 99 -20.1812 66.1250 7 11 137
1865052S13058 1865 7 SI MM NOT_NAMED 1865-02-24 03:00:00 NR -20.5835 66.4386 main 896 896 _____P____P___ -1 -20.5809 66.3785 99 -20.5886 66.5588 7 10 138
1865052S13058 1865 7 SI MM NOT_NAMED 1865-02-24 06:00:00 NR -20.9200 66.7600 reunion main 938 938 _____O____O___ -1 -20.9000 66.7000 99 9.90000 -21.0000 67.0000 7 8 140
1865052S13058 1865 7 SI MM NOT_NAMED 1865-02-24 09:00:00 NR -21.1864 66.9883 main 961 961 _____P________ -1 -21.1864 66.9883 99 7 7 139
1865052S13058 1865 7 SI MM NOT_NAMED 1865-02-24 12:00:00 NR -21.4432 67.2464 main 984 984 _____P________ -1 -21.4432 67.2464 99 7 7 137
1865052S13058 1865 7 SI MM NOT_NAMED 1865-02-24 15:00:00 NR -21.6746 67.4785 main 1018 1018 _____P________ -1 -21.6746 67.4785 99 7 6 137
1865052S13058 1865 7 SI MM NOT_NAMED 1865-02-24 18:00:00 NR -21.8850 67.6888 main 1042 1042 _____P________ -1 -21.8850 67.6888 99 6 137
1865052S13058 1865 7 SI MM NOT_NAMED 1865-02-24 21:00:00 NR -22.0785 67.8817 main 1065 1065 _____P________ -1 -22.0785 67.8817 99 5 137
1865052S13058 1865 7 SI MM NOT_NAMED 1865-02-25 00:00:00 NR -22.2594 68.0616 main 1089 1089 _____P________ -1 -22.2594 68.0616 99 5 137
1865052S13058 1865 7 SI MM NOT_NAMED 1865-02-25 03:00:00 NR -22.4319 68.2328 main 1101 1101 _____P________ -1 -22.4319 68.2328 99 5 137
1865052S13058 1865 7 SI MM NOT_NAMED 1865-02-25 06:00:00 NR -22.6000 68.4000 reunion main 1126 _____O________ -1 -22.6000 68.4000 99 9.90000 5 138

IBTrACS Databaseについて

本データベースは、米国NOAAが公開する1842年以降の世界の熱帯低気圧のベストトラックデータアーカイブInternational Best Track Archive for Climate Stewardship (IBTrACS)を、ウェブで閲覧しやすい形式に変換したものです。

最終更新日:2021-11-26